createdAt,value
2019-05-15T00:01:43.130Z,7.40
2019-05-15T00:04:13.299Z,6.83
2019-05-15T00:06:43.581Z,7.03
2019-05-15T00:09:13.748Z,6.08
2019-05-15T00:11:43.963Z,6.70
2019-05-15T00:14:14.184Z,6.30
2019-05-15T00:16:44.419Z,6.58
2019-05-15T00:19:14.650Z,6.87
2019-05-15T00:21:44.794Z,6.50
2019-05-15T00:24:14.961Z,5.70
2019-05-15T00:26:45.024Z,6.08
2019-05-15T00:29:19.015Z,6.25
2019-05-15T00:31:48.527Z,6.17
2019-05-15T00:34:20.001Z,5.03
2019-05-15T00:36:50.000Z,5.50
2019-05-15T00:39:20.158Z,4.87
2019-05-15T00:41:54.587Z,5.67
2019-05-15T00:44:22.266Z,5.25
2019-05-15T00:46:52.503Z,5.10
2019-05-15T00:49:22.794Z,5.35
2019-05-15T00:51:53.027Z,5.20
2019-05-15T00:54:23.169Z,4.60
2019-05-15T00:56:53.259Z,5.08
2019-05-15T00:59:26.914Z,4.55
2019-05-15T01:01:55.155Z,4.83
2019-05-15T01:04:25.228Z,4.80
2019-05-15T01:06:55.258Z,4.35
2019-05-15T01:09:25.390Z,4.80
2019-05-15T01:11:55.700Z,4.53
2019-05-15T01:14:27.759Z,4.90
2019-05-15T01:16:58.277Z,4.35
2019-05-15T01:19:28.777Z,4.87
2019-05-15T01:21:59.971Z,4.78
2019-05-15T01:24:30.103Z,4.22
2019-05-15T01:27:00.330Z,4.28
2019-05-15T01:29:40.608Z,4.45
2019-05-15T01:32:02.391Z,4.78
2019-05-15T01:34:32.556Z,4.87
2019-05-15T01:37:02.678Z,5.12
2019-05-15T01:39:33.425Z,4.05
2019-05-15T01:42:03.629Z,4.70
2019-05-15T01:44:33.864Z,4.80
2019-05-15T01:47:04.079Z,5.03
2019-05-15T01:49:34.233Z,4.60
2019-05-15T01:52:04.376Z,4.28
2019-05-15T01:54:34.680Z,4.08
2019-05-15T01:57:04.832Z,4.25
2019-05-15T01:59:34.920Z,4.37
2019-05-15T02:02:05.201Z,4.60
2019-05-15T02:04:35.433Z,4.75
2019-05-15T02:07:08.175Z,4.33
2019-05-15T02:09:38.570Z,4.15
2019-05-15T02:12:08.923Z,4.55
2019-05-15T02:14:39.318Z,4.25
2019-05-15T02:17:09.610Z,4.45
2019-05-15T02:19:39.830Z,4.25
2019-05-15T02:22:09.984Z,3.98
2019-05-15T02:24:40.222Z,4.20
2019-05-15T02:27:10.289Z,4.00
2019-05-15T02:29:40.360Z,4.58
2019-05-15T02:32:10.438Z,4.00
2019-05-15T02:34:42.051Z,4.53
2019-05-15T02:37:12.273Z,4.58
2019-05-15T02:39:43.469Z,4.42
2019-05-15T02:42:13.614Z,4.30
2019-05-15T02:44:43.936Z,4.28
2019-05-15T02:47:14.088Z,4.60
2019-05-15T02:49:44.284Z,4.15
2019-05-15T02:52:14.578Z,4.17
2019-05-15T02:54:44.783Z,4.03
2019-05-15T02:57:14.930Z,4.25
2019-05-15T02:59:45.064Z,3.80
2019-05-15T03:02:15.287Z,3.98
2019-05-15T03:04:48.367Z,3.12
2019-05-15T03:07:19.338Z,4.03
2019-05-15T03:09:49.894Z,3.85
2019-05-15T03:12:20.124Z,3.92
2019-05-15T03:14:50.356Z,4.05
2019-05-15T03:17:20.553Z,4.28
2019-05-15T03:19:50.763Z,3.90
2019-05-15T03:22:20.896Z,3.83
2019-05-15T03:24:51.214Z,4.35
2019-05-15T03:27:22.426Z,3.77
2019-05-15T03:29:52.646Z,4.47
2019-05-15T03:32:32.819Z,4.30
2019-05-15T03:34:56.847Z,3.92
2019-05-15T03:37:32.512Z,4.03
2019-05-15T03:39:59.658Z,4.10
2019-05-15T03:42:30.100Z,3.87
2019-05-15T03:45:00.317Z,3.77
2019-05-15T03:47:30.454Z,3.58
2019-05-15T03:50:00.555Z,4.08
2019-05-15T03:52:30.687Z,4.17
2019-05-15T03:55:00.940Z,3.92
2019-05-15T03:57:31.079Z,4.10
2019-05-15T04:00:01.315Z,4.33
2019-05-15T04:02:32.888Z,4.03
2019-05-15T04:05:06.434Z,3.80
2019-05-15T04:07:39.574Z,4.00
2019-05-15T04:10:10.119Z,4.40
2019-05-15T04:12:40.969Z,4.62
2019-05-15T04:15:11.494Z,10.80
2019-05-15T04:17:41.737Z,7.12
2019-05-15T04:20:12.273Z,8.18
2019-05-15T04:22:42.404Z,9.13
2019-05-15T04:25:13.312Z,7.45
2019-05-15T04:27:43.529Z,4.55
2019-05-15T04:30:14.673Z,4.37
2019-05-15T04:32:44.729Z,4.15
2019-05-15T04:35:15.093Z,4.22
2019-05-15T04:37:45.227Z,4.37
2019-05-15T04:40:15.584Z,4.40
2019-05-15T04:42:45.653Z,5.58
2019-05-15T04:45:19.186Z,4.53
2019-05-15T04:47:49.864Z,5.22
2019-05-15T04:50:19.810Z,4.80
2019-05-15T04:52:50.264Z,5.12
2019-05-15T04:55:20.595Z,10.53
2019-05-15T04:57:50.740Z,12.15
2019-05-15T05:00:49.189Z,13.90
2019-05-15T05:03:19.826Z,18.52
2019-05-15T05:05:50.448Z,7.10
2019-05-15T05:08:21.006Z,6.75
2019-05-15T05:10:51.617Z,18.50
2019-05-15T05:13:22.853Z,6.87
2019-05-15T05:15:52.914Z,5.50
2019-05-15T05:18:23.065Z,6.20
2019-05-15T05:20:53.276Z,5.30
2019-05-15T05:23:23.429Z,5.47
2019-05-15T05:25:53.506Z,6.17
2019-05-15T05:28:23.806Z,5.62
2019-05-15T05:30:53.966Z,5.87
2019-05-15T05:33:24.109Z,6.15
2019-05-15T05:35:54.290Z,8.08
2019-05-15T05:38:24.530Z,14.75
2019-05-15T05:40:54.677Z,8.80
2019-05-15T05:43:24.895Z,6.87
2019-05-15T05:45:55.104Z,6.05
2019-05-15T05:48:25.278Z,6.03
2019-05-15T05:50:55.450Z,6.05
2019-05-15T05:53:25.748Z,4.95
2019-05-15T05:55:57.906Z,4.80
2019-05-15T05:58:29.760Z,4.70
2019-05-15T06:00:59.436Z,5.00
2019-05-15T06:03:29.679Z,5.33
2019-05-15T06:05:59.904Z,5.42
2019-05-15T06:08:30.171Z,5.28
2019-05-15T06:11:00.328Z,5.55
2019-05-15T06:13:30.454Z,5.17
2019-05-15T06:16:00.704Z,5.75
2019-05-15T06:18:30.848Z,5.53
2019-05-15T06:21:01.081Z,5.72
2019-05-15T06:23:35.046Z,4.92
2019-05-15T06:26:03.371Z,5.62
2019-05-15T06:28:33.566Z,6.00
2019-05-15T06:31:03.733Z,5.55
2019-05-15T06:33:33.965Z,5.03
2019-05-15T06:36:04.135Z,4.10
2019-05-15T06:38:35.306Z,4.00
2019-05-15T06:41:05.463Z,3.52
2019-05-15T06:43:35.691Z,4.25
2019-05-15T06:46:05.827Z,4.15
2019-05-15T06:48:37.848Z,3.92
2019-05-15T06:51:08.860Z,3.90
2019-05-15T06:53:39.241Z,3.85
2019-05-15T06:56:09.422Z,3.25
2019-05-15T06:58:40.563Z,3.52
2019-05-15T07:01:10.872Z,3.37
2019-05-15T07:03:41.009Z,3.22
2019-05-15T07:06:11.246Z,3.30
2019-05-15T07:08:41.472Z,2.95
2019-05-15T07:11:11.728Z,3.70
2019-05-15T07:13:41.950Z,4.55
2019-05-15T07:16:12.120Z,4.53
2019-05-15T07:18:42.346Z,4.80
2019-05-15T07:21:12.483Z,4.62
2019-05-15T07:23:42.584Z,3.42
2019-05-15T07:26:12.824Z,2.62
2019-05-15T07:28:42.852Z,4.05
2019-05-15T07:31:12.921Z,4.28
2019-05-15T07:33:44.026Z,4.05
2019-05-15T07:36:14.324Z,3.90
2019-05-15T07:38:44.662Z,3.87
2019-05-15T07:41:14.677Z,2.90
2019-05-15T07:43:44.816Z,2.72
2019-05-15T07:46:18.447Z,3.35
2019-05-15T07:48:49.054Z,2.42
2019-05-15T07:51:19.625Z,2.72
2019-05-15T07:53:49.768Z,2.70
2019-05-15T07:56:19.859Z,2.35
2019-05-15T07:58:52.560Z,2.12
2019-05-15T08:01:22.051Z,2.47
2019-05-15T08:04:01.494Z,2.62
2019-05-15T08:06:30.034Z,2.62
2019-05-15T08:09:00.325Z,2.47
2019-05-15T08:11:32.072Z,2.52
2019-05-15T08:14:03.728Z,2.70
2019-05-15T08:16:34.112Z,2.83
2019-05-15T08:19:04.316Z,2.20
2019-05-15T08:21:34.576Z,2.20
2019-05-15T08:24:04.730Z,2.50
2019-05-15T08:26:34.949Z,2.77
2019-05-15T08:29:05.232Z,2.00
2019-05-15T08:31:35.427Z,2.00
2019-05-15T08:34:15.307Z,1.92
2019-05-15T08:36:38.536Z,2.00
2019-05-15T08:39:08.989Z,1.72
2019-05-15T08:41:39.269Z,1.60
2019-05-15T08:44:10.611Z,1.50
2019-05-15T08:46:40.701Z,1.57
2019-05-15T08:49:10.922Z,1.82
2019-05-15T08:51:40.942Z,1.60
2019-05-15T08:54:11.083Z,1.80
2019-05-15T08:56:41.240Z,2.00
2019-05-15T08:59:11.457Z,1.92
2019-05-15T09:01:41.690Z,1.98
2019-05-15T09:04:26.196Z,2.10
2019-05-15T09:06:43.629Z,2.12
2019-05-15T09:09:13.629Z,2.40
2019-05-15T09:11:43.721Z,2.30
2019-05-15T09:14:13.927Z,2.83
2019-05-15T09:16:44.022Z,3.70
2019-05-15T09:19:14.248Z,3.05
2019-05-15T09:21:44.319Z,3.30
2019-05-15T09:24:14.390Z,3.37
2019-05-15T09:26:44.457Z,3.37
2019-05-15T09:29:14.637Z,3.42
2019-05-15T09:31:44.913Z,3.30
2019-05-15T09:34:15.061Z,2.62
2019-05-15T09:36:45.427Z,2.55
2019-05-15T09:39:18.073Z,2.70
2019-05-15T09:41:48.719Z,2.27
2019-05-15T09:44:21.546Z,2.50
2019-05-15T09:46:51.092Z,2.60
2019-05-15T09:49:21.332Z,2.90
2019-05-15T09:51:51.569Z,2.37
2019-05-15T09:54:21.714Z,2.60
2019-05-15T09:56:51.883Z,2.37
2019-05-15T09:59:22.013Z,2.40
2019-05-15T10:01:52.164Z,2.58
2019-05-15T10:04:22.388Z,3.00
2019-05-15T10:06:52.616Z,3.33
2019-05-15T10:09:22.825Z,2.70
2019-05-15T10:11:53.066Z,2.77
2019-05-15T10:14:23.343Z,3.20
2019-05-15T10:16:53.508Z,2.92
2019-05-15T10:19:23.790Z,2.83
2019-05-15T10:21:53.913Z,2.67
2019-05-15T10:24:24.135Z,2.67
2019-05-15T10:26:54.280Z,2.60
2019-05-15T10:29:24.499Z,2.85
2019-05-15T10:31:54.667Z,2.70
2019-05-15T10:34:24.890Z,3.30
2019-05-15T10:36:55.030Z,2.95
2019-05-15T10:39:25.333Z,2.83
2019-05-15T10:41:55.467Z,3.17
2019-05-15T10:44:25.707Z,2.90
2019-05-15T10:46:58.342Z,3.75
2019-05-15T10:49:28.172Z,3.40
2019-05-15T10:51:58.526Z,3.42
2019-05-15T10:54:29.299Z,3.35
2019-05-15T10:57:00.882Z,3.52
2019-05-15T10:59:31.128Z,3.40
2019-05-15T11:02:01.375Z,3.27
2019-05-15T11:04:31.678Z,3.15
2019-05-15T11:07:01.888Z,3.33
2019-05-15T11:09:32.089Z,3.25
2019-05-15T11:12:02.239Z,3.37
2019-05-15T11:14:32.397Z,2.52
2019-05-15T11:17:02.568Z,3.30
2019-05-15T11:19:36.072Z,3.60
2019-05-15T11:22:04.694Z,3.50
2019-05-15T11:24:34.868Z,3.75
2019-05-15T11:27:05.022Z,2.92
2019-05-15T11:29:35.109Z,3.58
2019-05-15T11:32:05.491Z,3.85
2019-05-15T11:34:37.891Z,3.87
2019-05-15T11:37:07.592Z,3.65
2019-05-15T11:39:46.011Z,3.20
2019-05-15T11:42:10.611Z,3.65
2019-05-15T11:44:40.813Z,3.35
2019-05-15T11:47:10.987Z,2.92
2019-05-15T11:49:41.140Z,2.83
2019-05-15T11:52:11.288Z,2.90
2019-05-15T11:54:41.426Z,2.90
2019-05-15T11:57:13.123Z,3.15
2019-05-15T11:59:45.558Z,3.83
2019-05-15T12:02:15.136Z,3.70
2019-05-15T12:04:45.363Z,3.27
2019-05-15T12:07:17.666Z,2.77
2019-05-15T12:09:47.208Z,3.75
2019-05-15T12:12:18.453Z,3.80
2019-05-15T12:14:49.776Z,4.03
2019-05-15T12:17:19.931Z,3.85
2019-05-15T12:20:05.232Z,4.03
2019-05-15T12:22:21.866Z,3.80
2019-05-15T12:24:52.009Z,3.42
2019-05-15T12:27:22.164Z,3.83
2019-05-15T12:29:52.350Z,4.50
2019-05-15T12:34:54.337Z,4.05
2019-05-15T12:37:24.486Z,4.40
2019-05-15T12:39:25.968Z,3.98
2019-05-15T13:00:14.868Z,4.83
2019-05-15T13:02:45.071Z,4.50
2019-05-15T13:05:15.230Z,4.33
2019-05-15T13:07:45.379Z,4.60
2019-05-15T13:10:18.204Z,4.45
2019-05-15T13:12:59.390Z,4.12
2019-05-15T13:15:19.343Z,4.55
2019-05-15T13:17:52.955Z,4.80
2019-05-15T13:20:22.325Z,4.70
2019-05-15T13:22:52.512Z,5.05
2019-05-15T13:25:23.411Z,4.90
2019-05-15T13:27:53.663Z,4.78
2019-05-15T13:30:24.306Z,5.15
2019-05-15T13:32:54.467Z,4.90
2019-05-15T13:35:24.686Z,4.97
2019-05-15T13:37:54.933Z,5.10
2019-05-15T13:40:35.011Z,4.92
2019-05-15T13:42:58.942Z,5.00
2019-05-15T13:45:28.982Z,5.05
2019-05-15T13:47:59.245Z,4.83
2019-05-15T13:50:29.400Z,5.05
2019-05-15T13:52:59.624Z,5.37
2019-05-15T13:55:36.305Z,5.35
2019-05-15T13:58:01.581Z,5.20
2019-05-15T14:00:31.877Z,4.62
2019-05-15T14:03:02.327Z,4.60
2019-05-15T14:05:32.554Z,5.00
2019-05-15T14:08:02.767Z,5.37
2019-05-15T14:10:33.063Z,5.83
2019-05-15T14:13:03.144Z,5.58
2019-05-15T14:15:33.375Z,5.35
2019-05-15T14:18:03.455Z,5.87
2019-05-15T14:20:33.682Z,6.22
2019-05-15T14:23:03.870Z,5.87
2019-05-15T14:25:34.039Z,5.58
2019-05-15T14:28:04.459Z,6.00
2019-05-15T14:30:34.759Z,5.60
2019-05-15T14:33:04.927Z,4.97
2019-05-15T14:35:35.106Z,5.05
2019-05-15T14:38:06.826Z,5.00
2019-05-15T14:40:37.167Z,5.53
2019-05-15T14:43:08.935Z,6.00
2019-05-15T14:45:39.411Z,5.90
2019-05-15T14:48:09.584Z,6.08
2019-05-15T14:50:39.917Z,5.70
2019-05-15T14:53:10.158Z,5.78
2019-05-15T14:55:43.946Z,5.55
2019-05-15T14:58:13.215Z,5.05
2019-05-15T15:00:43.687Z,4.35
2019-05-15T15:03:14.266Z,3.77
2019-05-15T15:05:44.493Z,3.85
2019-05-15T15:08:21.590Z,4.70
2019-05-15T15:10:46.512Z,4.70
2019-05-15T15:13:18.254Z,4.50
2019-05-15T15:15:48.742Z,4.40
2019-05-15T15:18:18.956Z,4.60
2019-05-15T15:20:49.178Z,4.70
2019-05-15T15:23:19.211Z,4.97
2019-05-15T15:25:49.268Z,3.95
2019-05-15T15:28:19.503Z,4.72
2019-05-15T15:30:49.720Z,4.60
2019-05-15T15:33:19.980Z,4.20
2019-05-15T15:35:50.188Z,4.65
2019-05-15T15:38:36.653Z,4.67
2019-05-15T15:40:53.195Z,4.80
2019-05-15T15:43:24.502Z,4.65
2019-05-15T15:45:54.657Z,3.98
2019-05-15T15:48:24.812Z,4.17
2019-05-15T15:50:55.050Z,3.65
2019-05-15T15:53:25.053Z,3.70
2019-05-15T15:55:55.139Z,4.05
2019-05-15T15:58:25.308Z,3.90
2019-05-15T16:00:55.452Z,3.85
2019-05-15T16:03:25.737Z,3.52
2019-05-15T16:05:55.832Z,3.25
2019-05-15T16:08:28.370Z,3.17
2019-05-15T16:10:59.011Z,3.45
2019-05-15T16:13:29.487Z,2.95
2019-05-15T16:15:59.649Z,3.30
2019-05-15T16:18:29.797Z,3.12
2019-05-15T16:20:59.873Z,2.90
2019-05-15T16:23:31.170Z,3.37
2019-05-15T16:26:01.394Z,4.00
2019-05-15T16:28:31.622Z,3.50
2019-05-15T16:31:01.849Z,3.80
2019-05-15T16:33:32.004Z,3.22
2019-05-15T16:36:02.228Z,3.37
2019-05-15T16:38:33.360Z,3.35
2019-05-15T16:41:03.459Z,3.27
2019-05-15T16:43:33.536Z,3.30
2019-05-15T16:46:03.861Z,3.22
2019-05-15T16:48:34.159Z,2.98
2019-05-15T16:51:04.470Z,3.22
2019-05-15T16:53:34.929Z,3.10
2019-05-15T16:56:05.137Z,3.00
2019-05-15T16:58:35.441Z,3.00
2019-05-15T17:01:05.618Z,3.00
2019-05-15T17:03:37.896Z,2.80
2019-05-15T17:06:09.421Z,3.65
2019-05-15T17:08:39.310Z,3.55
2019-05-15T17:11:09.471Z,3.47
2019-05-15T17:13:39.693Z,3.70
2019-05-15T17:16:09.880Z,3.33
2019-05-15T17:18:39.984Z,3.62
2019-05-15T17:21:10.330Z,3.08
2019-05-15T17:23:40.457Z,3.70
2019-05-15T17:26:10.516Z,3.80
2019-05-15T17:28:40.776Z,3.12
2019-05-15T17:31:10.899Z,3.10
2019-05-15T17:33:41.047Z,2.90
2019-05-15T17:36:11.318Z,3.33
2019-05-15T17:38:41.465Z,3.00
2019-05-15T17:41:11.593Z,4.22
2019-05-15T17:43:41.742Z,5.45
2019-05-15T17:46:12.826Z,4.17
2019-05-15T17:48:43.075Z,3.42
2019-05-15T17:51:13.268Z,3.00
2019-05-15T17:53:43.543Z,3.15
2019-05-15T17:56:13.734Z,3.22
2019-05-15T17:58:43.899Z,2.80
2019-05-15T18:01:14.203Z,2.70
2019-05-15T18:03:44.335Z,3.40
2019-05-15T18:06:14.512Z,3.10
2019-05-15T18:08:44.726Z,2.83
2019-05-15T18:11:14.885Z,3.30
2019-05-15T18:13:45.126Z,3.12
2019-05-15T18:16:15.293Z,5.62
2019-05-15T18:18:47.785Z,6.45
2019-05-15T18:21:21.157Z,6.65
2019-05-15T18:23:52.366Z,6.92
2019-05-15T18:26:22.443Z,7.53
2019-05-15T18:28:52.601Z,8.05
2019-05-15T18:31:22.683Z,7.78
2019-05-15T18:33:54.329Z,8.15
2019-05-15T18:36:24.809Z,7.80
2019-05-15T18:38:54.831Z,7.67
2019-05-15T18:41:25.040Z,7.95
2019-05-15T18:43:55.305Z,8.98
2019-05-15T18:46:25.444Z,8.88
2019-05-15T18:48:57.820Z,8.33
2019-05-15T18:51:27.986Z,9.00
2019-05-15T18:53:58.828Z,8.93
2019-05-15T18:56:29.818Z,9.30
2019-05-15T18:59:01.321Z,8.98
2019-05-15T19:01:32.478Z,8.75
2019-05-15T19:04:02.619Z,9.70
2019-05-15T19:06:32.735Z,9.83
2019-05-15T19:09:03.049Z,9.90
2019-05-15T19:11:34.392Z,10.43
2019-05-15T19:14:04.676Z,9.78
2019-05-15T19:16:34.904Z,11.50
2019-05-15T19:19:05.139Z,11.15
2019-05-15T19:21:35.388Z,10.38
2019-05-15T19:24:07.610Z,10.38
2019-05-15T19:26:37.413Z,9.03
2019-05-15T19:29:08.229Z,9.63
2019-05-15T19:31:39.199Z,9.20
2019-05-15T19:34:09.695Z,9.38
2019-05-15T19:36:39.814Z,8.63
2019-05-15T19:39:10.123Z,9.78
2019-05-15T19:41:40.409Z,9.40
2019-05-15T19:44:11.602Z,9.38
2019-05-15T19:46:41.717Z,9.45
2019-05-15T19:49:12.169Z,9.78
2019-05-15T19:51:42.332Z,8.88
2019-05-15T19:54:12.415Z,9.80
2019-05-15T19:56:42.585Z,9.10
2019-05-15T19:59:12.747Z,9.38
2019-05-15T20:01:42.990Z,9.98
2019-05-15T20:04:13.298Z,9.25
2019-05-15T20:06:43.526Z,9.20
2019-05-15T20:09:13.843Z,8.20
2019-05-15T20:11:43.975Z,9.58
2019-05-15T20:14:14.171Z,9.60
2019-05-15T20:16:44.312Z,9.55
2019-05-15T20:19:14.535Z,9.60
2019-05-15T20:21:44.833Z,10.05
2019-05-15T20:24:15.097Z,10.00
2019-05-15T20:26:45.307Z,10.05
2019-05-15T20:29:17.826Z,10.00
2019-05-15T20:31:49.063Z,11.03
2019-05-15T20:34:19.246Z,10.70
2019-05-15T20:36:49.481Z,10.32
2019-05-15T20:39:19.716Z,11.10
2019-05-15T20:41:50.007Z,10.78
2019-05-15T20:44:20.327Z,11.10
2019-05-15T20:46:51.061Z,11.43
2019-05-15T20:49:21.144Z,11.57
2019-05-15T20:51:51.477Z,11.48
2019-05-15T20:54:21.701Z,12.40
2019-05-15T20:56:51.873Z,12.73
2019-05-15T20:59:22.173Z,12.98
2019-05-15T21:01:52.492Z,12.55
2019-05-15T21:04:24.147Z,12.85
2019-05-15T21:06:54.535Z,13.38
2019-05-15T21:09:24.839Z,12.78
2019-05-15T21:11:55.155Z,12.28
2019-05-15T21:14:25.302Z,12.00
2019-05-15T21:16:55.407Z,12.80
2019-05-15T21:19:27.871Z,11.55
2019-05-15T21:21:57.512Z,12.10
2019-05-15T21:24:28.378Z,11.55
2019-05-15T21:26:58.698Z,11.65
2019-05-15T21:29:28.978Z,12.68
2019-05-15T21:32:00.253Z,12.65
2019-05-15T21:34:37.415Z,13.15
2019-05-15T21:37:02.254Z,12.28
2019-05-15T21:39:32.434Z,12.70
2019-05-15T21:42:02.694Z,12.80
2019-05-15T21:44:32.848Z,12.33
2019-05-15T21:47:02.994Z,12.35
2019-05-15T21:49:33.162Z,13.40
2019-05-15T21:52:03.712Z,12.78
2019-05-15T21:54:33.937Z,14.13
2019-05-15T21:57:18.654Z,13.83
2019-05-15T21:59:38.302Z,13.72
2019-05-15T22:02:09.652Z,13.30
2019-05-15T22:04:51.886Z,12.23
2019-05-15T22:07:11.753Z,14.25
2019-05-15T22:09:42.024Z,24.47
2019-05-15T22:12:12.417Z,18.60
2019-05-15T22:14:43.726Z,14.87
2019-05-15T22:17:14.864Z,15.88
2019-05-15T22:19:45.020Z,16.85
2019-05-15T22:22:17.868Z,16.37
2019-05-15T22:24:48.355Z,14.03
2019-05-15T22:27:21.081Z,17.02
2019-05-15T22:29:50.629Z,15.53
2019-05-15T22:32:20.951Z,19.65
2019-05-15T22:35:05.672Z,15.55
2019-05-15T22:37:22.988Z,15.80
2019-05-15T22:39:53.060Z,17.02
2019-05-15T22:42:23.293Z,15.30
2019-05-15T22:44:53.450Z,13.80
2019-05-15T22:47:23.543Z,14.40
2019-05-15T22:49:53.689Z,13.75
2019-05-15T22:52:24.063Z,13.48
2019-05-15T22:54:54.118Z,14.13
2019-05-15T22:57:24.303Z,18.90
2019-05-15T22:59:54.534Z,14.28
2019-05-15T23:02:24.923Z,17.52
2019-05-15T23:04:55.153Z,21.95
2019-05-15T23:07:28.000Z,17.20
2019-05-15T23:09:58.341Z,17.98
2019-05-15T23:12:28.764Z,18.85
2019-05-15T23:14:58.983Z,18.57
2019-05-15T23:17:29.057Z,14.68
2019-05-15T23:19:59.250Z,14.93
2019-05-15T23:22:30.760Z,15.18
2019-05-15T23:25:00.854Z,14.78
2019-05-15T23:27:31.018Z,13.83
2019-05-15T23:30:01.269Z,15.50
2019-05-15T23:32:31.541Z,15.40
2019-05-15T23:35:01.572Z,13.75
2019-05-15T23:37:31.719Z,14.33
2019-05-15T23:40:01.911Z,14.40
2019-05-15T23:42:32.047Z,14.05
2019-05-15T23:45:02.149Z,13.30
2019-05-15T23:47:32.363Z,13.83
2019-05-15T23:50:02.408Z,13.93
2019-05-15T23:52:32.564Z,14.55
2019-05-15T23:55:02.660Z,13.72
2019-05-15T23:57:32.821Z,13.68
